Thunder radar more information blitzortung!


Radar de pluja more information rain snow radar


Visita la nostra xarxa de llocs de meteo:

Template documentation
and downloads

And another site



No particular awareness of the weather is required.    There are no Weather-warnings

Pagina Historial Weather Underground text

Diari Resum Novembre 16, 2017 Unitats:  Mètric    Imperial   Tant
« Previous Dia
SegĂźent Dia »
Diari Setmana Mensual Anual Personalitzada
  Maxima: Minima: Media:
Temperatura: -17.8 °C -16.4 °C -12.1 °C
Punt de rosada: -17.8 °C -20.3 °C -17.2 °C
Humitat: Humidity % 48 % 53 %
Wind Speed: 0 km/h 0 km/h 5.3 km/h
RĂ fegues de vent: 0 km/h - -
Vent:- - South
Pression baro: 0 hPa 34496.6 hPa -
Precipitacions: 0 mm    
Historical Graphs
 
 
Dades de taula per Novembre 16, 2017
Temps Temperatura Punt de rosada Pression baro Vent Wind Speed RĂ fegues de vent Humitat Rainfall Rate (Hourly)
-17.8 °C -17.8 °C 0 hPa Calm     Humidity % 0 mm
00:04 -14.9 °C -19.9 °C 34496.6 hPa Calm     52 % 0 mm
00:05 -16.2 °C -20.1 °C 34496.6 hPa Calm   5.1 km/h 60 % 0 mm
00:09 -14.9 °C -19.9 °C 34496.6 hPa Calm     52 % 0 mm
00:15 -16.2 °C -20.2 °C 34496.6 hPa West 2.6 km/h 5.1 km/h 59 % 0 mm
00:25 -16.2 °C -20.1 °C 34496.6 hPa Calm   5.1 km/h 60 % 0 mm
00:35 -16.1 °C -20 °C 34496.6 hPa SW 5.1 km/h 5.1 km/h 60 % 0 mm
00:45 -16.3 °C -20.2 °C 34496.6 hPa SW 2.6 km/h 5.1 km/h 60 % 0 mm
00:55 -16.3 °C -20.2 °C 34496.6 hPa SW 2.6 km/h 2.6 km/h 60 % 0 mm
01:05 -16.3 °C -20.1 °C 34496.6 hPa Calm   2.6 km/h 61 % 0 mm
01:15 -16.2 °C -20.1 °C 34496.6 hPa Calm   5.1 km/h 60 % 0 mm
01:25 -16.2 °C -20 °C 34533.8 hPa Calm   2.6 km/h 61 % 0 mm
01:35 -16.4 °C -20.3 °C 34533.8 hPa WSW 5.1 km/h 7.7 km/h 60 % 0 mm
01:45 -16.4 °C -20.2 °C 34533.8 hPa WSW 2.6 km/h 5.1 km/h 61 % 0 mm
01:55 -16.3 °C -20.2 °C 34533.8 hPa SW 5.1 km/h 5.1 km/h 60 % 0 mm
02:05 -16.3 °C -20.1 °C 34533.8 hPa Calm   5.1 km/h 61 % 0 mm
02:15 -16.1 °C -19.8 °C 34533.8 hPa Calm     61 % 0 mm
02:25 -15.6 °C -19.3 °C 34533.8 hPa Calm     62 % 0 mm
02:35 -15.6 °C -19.5 °C 34533.8 hPa Calm     60 % 0 mm
02:45 -15.4 °C -19.4 °C 34533.8 hPa SW 2.6 km/h 2.6 km/h 59 % 0 mm
02:55 -14.8 °C -18.9 °C 34533.8 hPa Calm   2.6 km/h 59 % 0 mm
03:05 -14.4 °C -18.8 °C 34533.8 hPa Calm   2.6 km/h 57 % 0 mm
03:15 -14.2 °C -18.6 °C 34496.6 hPa Calm   2.6 km/h 57 % 0 mm
03:25 -13.8 °C -18.3 °C 34567.7 hPa Calm     56 % 0 mm
03:35 -13.8 °C -18.4 °C 34567.7 hPa SW 2.6 km/h 2.6 km/h 55 % 0 mm
03:55 -14.2 °C -18.8 °C 34567.7 hPa SW 2.6 km/h 5.1 km/h 55 % 0 mm
04:05 -13.6 °C -18.4 °C 34567.7 hPa SW 2.6 km/h 5.1 km/h 54 % 0 mm
04:15 -13.2 °C -18.1 °C 34567.7 hPa Calm   5.1 km/h 54 % 0 mm
04:25 -12.9 °C -17.8 °C 34567.7 hPa Calm   7.7 km/h 54 % 0 mm
04:35 -12.7 °C -17.6 °C 34567.7 hPa SE 2.6 km/h 5.1 km/h 54 % 0 mm
10:36 -12.4 °C -17.4 °C 34601.5 hPa SSE 3.1 km/h   54 % 0 mm
10:37 -12.4 °C -17.3 °C 34601.5 hPa SE 6 km/h 6 km/h 54 % 0 mm
10:42 -12.4 °C -17.5 °C 34601.5 hPa East 6 km/h 6 km/h 53 % 0 mm
10:47 -12.2 °C -17.3 °C 34601.5 hPa WNW 3.1 km/h   53 % 0 mm
10:52 -12.2 °C -17.4 °C 34601.5 hPa ESE 6 km/h 6 km/h 52 % 0 mm
10:57 -12.2 °C -17.4 °C 34601.5 hPa East 9 km/h 9 km/h 52 % 0 mm
11:02 -12 °C -17.3 °C 34601.5 hPa ENE 6 km/h 6 km/h 52 % 0 mm
11:07 -11.9 °C -17.1 °C 34601.5 hPa WNW 6 km/h 6 km/h 52 % 0 mm
11:12 -11.9 °C -17.1 °C 34601.5 hPa NW 6 km/h 6 km/h 52 % 0 mm
11:17 -11.7 °C -17 °C 34601.5 hPa NNE 6 km/h 6 km/h 52 % 0 mm
11:22 -11.7 °C -16.9 °C 34601.5 hPa NNE 6 km/h 6 km/h 52 % 0 mm
11:27 -11.6 °C -16.8 °C 34601.5 hPa SE 6 km/h 6 km/h 52 % 0 mm
11:32 -11.3 °C -16.6 °C 34601.5 hPa East 6 km/h 6 km/h 52 % 0 mm
11:42 -10.9 °C -16.4 °C 34601.5 hPa East 6 km/h 6 km/h 51 % 0 mm
11:47 -11.1 °C -16.6 °C 34601.5 hPa ENE 9 km/h 9 km/h 51 % 0 mm
11:57 -11.1 °C -16.6 °C 34601.5 hPa East 6 km/h 6 km/h 51 % 0 mm
12:02 -10.9 °C -16.4 °C 34601.5 hPa ESE 9 km/h 9 km/h 51 % 0 mm
12:07 -10.8 °C -16.3 °C 34601.5 hPa East 8 km/h 8 km/h 51 % 0 mm
12:12 -10.8 °C -16.4 °C 34601.5 hPa ENE 11.9 km/h 11.9 km/h 50 % 0 mm
12:17 -10.6 °C -16.1 °C 34601.5 hPa WSW 3.7 km/h   51 % 0 mm
12:22 -10.6 °C -16.1 °C 34601.5 hPa ESE 6 km/h 6 km/h 51 % 0 mm
12:27 -10.4 °C -16.1 °C 34601.5 hPa ENE 9 km/h 9 km/h 50 % 0 mm
12:32 -10.4 °C -16.1 °C 34601.5 hPa ESE 9 km/h 9 km/h 50 % 0 mm
12:37 -10.4 °C -16.1 °C 34567.7 hPa ESE 7.6 km/h 7.6 km/h 50 % 0 mm
12:42 -10.2 °C -15.9 °C 34567.7 hPa NNE 3.7 km/h 3.7 km/h 50 % 0 mm
12:47 -10.1 °C -15.8 °C 34567.7 hPa SSE 6.3 km/h 6.3 km/h 50 % 0 mm
12:52 -10 °C -15.7 °C 34567.7 hPa ESE 9 km/h 9 km/h 50 % 0 mm
12:57 -10.1 °C -15.8 °C 34567.7 hPa ENE 6.3 km/h 6.3 km/h 50 % 0 mm
13:02 -10.1 °C -15.8 °C 34567.7 hPa East 6 km/h 6 km/h 50 % 0 mm
13:07 -9.8 °C -15.6 °C 34533.8 hPa East 3.1 km/h 3.1 km/h 50 % 0 mm
13:12 -10 °C -15.7 °C 34533.8 hPa ESE 9 km/h 9 km/h 50 % 0 mm
13:17 -9.9 °C -15.6 °C 34533.8 hPa ESE 9 km/h 9 km/h 50 % 0 mm
13:22 -9.8 °C -15.6 °C 34533.8 hPa ESE 9 km/h 9 km/h 50 % 0 mm
13:27 -9.8 °C -15.5 °C 34533.8 hPa SW 9 km/h 9 km/h 50 % 0 mm
13:32 -9.4 °C -14.9 °C 34533.8 hPa SW 6 km/h 6 km/h 51 % 0 mm
13:37 -9.4 °C -15.2 °C 34533.8 hPa ESE 6 km/h 6 km/h 50 % 0 mm
13:42 -9.4 °C -15.2 °C 34533.8 hPa East 4.2 km/h   50 % 0 mm
13:47 -9.4 °C -15.2 °C 34533.8 hPa ESE 9 km/h 9 km/h 50 % 0 mm
13:52 -9.4 °C -15.2 °C 34533.8 hPa ESE 11.9 km/h 11.9 km/h 50 % 0 mm
13:57 -9.4 °C -15.2 °C 34533.8 hPa WSW 9.3 km/h 9.3 km/h 50 % 0 mm
14:02 -9.4 °C -15.3 °C 34533.8 hPa East 11.9 km/h 11.9 km/h 49 % 0 mm
14:07 -9.3 °C -15.2 °C 34533.8 hPa WSW 7.6 km/h 7.6 km/h 49 % 0 mm
14:12 -9.3 °C -15.2 °C 34533.8 hPa SW 5.6 km/h 5.6 km/h 49 % 0 mm
14:17 -9.3 °C -15.2 °C 34533.8 hPa ESE 11.9 km/h 11.9 km/h 49 % 0 mm
14:22 -9.3 °C -15.2 °C 34533.8 hPa ESE 9 km/h 9 km/h 49 % 0 mm
14:27 -9.4 °C -15.4 °C 34533.8 hPa ESE 11.9 km/h 11.9 km/h 48 % 0 mm
14:32 -9.4 °C -15.4 °C 34533.8 hPa East 11.9 km/h 11.9 km/h 48 % 0 mm
14:37 -9.4 °C -15.4 °C 34533.8 hPa ESE 11.9 km/h 11.9 km/h 48 % 0 mm
14:42 -9.4 °C -15.4 °C 34533.8 hPa ESE 9 km/h 9 km/h 48 % 0 mm
14:47 -9.4 °C -15.4 °C 34533.8 hPa SE 9 km/h 9 km/h 48 % 0 mm
14:52 -9.3 °C -15.4 °C 34533.8 hPa ESE 9 km/h 9 km/h 48 % 0 mm
14:57 -9.3 °C -15.2 °C 34533.8 hPa SE 9 km/h 9 km/h 49 % 0 mm
15:02 -9.3 °C -15.2 °C 34533.8 hPa East 11.9 km/h 11.9 km/h 49 % 0 mm
15:07 -9.3 °C -15.2 °C 34533.8 hPa ESE 11.9 km/h 11.9 km/h 49 % 0 mm
15:12 -9.3 °C -15.2 °C 34533.8 hPa East 11.9 km/h 11.9 km/h 49 % 0 mm
15:17 -9.3 °C -15.1 °C 34533.8 hPa ESE 10.3 km/h 10.3 km/h 50 % 0 mm
15:22 -9.3 °C -15.1 °C 34533.8 hPa ESE 11.9 km/h 11.9 km/h 50 % 0 mm
15:27 -9.3 °C -14.9 °C 34533.8 hPa ESE 16.1 km/h 16.1 km/h 51 % 0 mm
15:37 -9.3 °C -14.9 °C 34533.8 hPa ESE 15 km/h 15 km/h 51 % 0 mm
15:42 -9.4 °C -14.8 °C 34533.8 hPa ESE 11.9 km/h 11.9 km/h 52 % 0 mm
15:47 -9.4 °C -14.8 °C 34533.8 hPa ESE 9 km/h 9 km/h 52 % 0 mm
15:52 -9.3 °C -14.6 °C 34533.8 hPa ESE 15 km/h 15 km/h 53 % 0 mm
15:57 -9.4 °C -14.6 °C 34533.8 hPa ESE 11.9 km/h 11.9 km/h 54 % 0 mm
16:02 -9.5 °C -14.5 °C 34533.8 hPa ENE 17.9 km/h 17.9 km/h 55 % 0 mm
16:07 -9.6 °C -14.3 °C 34533.8 hPa East 14 km/h 14 km/h 57 % 0 mm
16:12 -9.6 °C -14 °C 34533.8 hPa ESE 17.9 km/h 17.9 km/h 59 % 0 mm
16:17 -9.6 °C -13.9 °C 34533.8 hPa SSE 9 km/h 9 km/h 60 % 0 mm
16:22 -9.6 °C -13.8 °C 34533.8 hPa ESE 11.9 km/h 11.9 km/h 60 % 0 mm
16:23 -9.6 °C -13.8 °C 34533.8 hPa ESE 11.9 km/h 11.9 km/h 60 % 0 mm
16:28 -9.6 °C -13.7 °C 34533.8 hPa ESE 11.9 km/h 11.9 km/h 61 % 0 mm
16:33 -9.7 °C -13.8 °C 34533.8 hPa ESE 11.9 km/h 11.9 km/h 61 % 0 mm
16:38 -9.6 °C -13.7 °C 34533.8 hPa SSW 9 km/h 9 km/h 61 % 0 mm
16:43 -9.4 °C -13.7 °C 34533.8 hPa SW 11.9 km/h 11.9 km/h 60 % 0 mm
16:48 -9.3 °C -14.1 °C 34533.8 hPa WSW 9 km/h 9 km/h 57 % 0 mm
16:53 -9.4 °C -14.2 °C 34533.8 hPa SSW 11.9 km/h 11.9 km/h 56 % 0 mm
16:58 -9.4 °C -14.4 °C 34533.8 hPa SSW 7.6 km/h 7.6 km/h 55 % 0 mm
17:03 -9.5 °C -14.5 °C 34533.8 hPa SW 6 km/h 6 km/h 55 % 0 mm
17:13 -9.8 °C -14.9 °C 34533.8 hPa SW 11.9 km/h 11.9 km/h 54 % 0 mm
17:18 -9.8 °C -14.9 °C 34533.8 hPa SW 6.3 km/h 6.3 km/h 54 % 0 mm
17:23 -10 °C -15.1 °C 34533.8 hPa SW 9 km/h 9 km/h 54 % 0 mm
17:28 -10.1 °C -15.2 °C 34533.8 hPa SW 9.3 km/h 9.3 km/h 54 % 0 mm
17:33 -10.2 °C -15.3 °C 34533.8 hPa SW 6 km/h 6 km/h 54 % 0 mm
17:38 -10.3 °C -15.6 °C 34533.8 hPa SW 6 km/h 6 km/h 53 % 0 mm
17:43 -10.4 °C -15.7 °C 34533.8 hPa WSW 6 km/h 6 km/h 53 % 0 mm
17:48 -10.6 °C -15.8 °C 34533.8 hPa WSW 6 km/h 6 km/h 53 % 0 mm
17:58 -10.8 °C -15.9 °C 34533.8 hPa WSW 5.6 km/h 5.6 km/h 53 % 0 mm
18:03 -10.8 °C -16 °C 34533.8 hPa SW 9 km/h 9 km/h 53 % 0 mm
18:08 -10.9 °C -16.1 °C 34533.8 hPa SW 6 km/h 6 km/h 53 % 0 mm
18:13 -11 °C -16.2 °C 34533.8 hPa WSW 6 km/h 6 km/h 53 % 0 mm
18:18 -11.1 °C -16.2 °C 34533.8 hPa WSW 6 km/h 6 km/h 53 % 0 mm
18:23 -11.1 °C -16.3 °C 34533.8 hPa SW 6 km/h 6 km/h 53 % 0 mm
18:28 -11.2 °C -16.3 °C 34533.8 hPa WSW 6 km/h 6 km/h 53 % 0 mm
18:33 -11.2 °C -16.4 °C 34533.8 hPa WSW 6 km/h 6 km/h 53 % 0 mm
18:38 -11.2 °C -16.4 °C 34533.8 hPa WSW 3.7 km/h 3.7 km/h 53 % 0 mm
18:43 -11.2 °C -16.5 °C 34533.8 hPa WSW 6 km/h 6 km/h 52 % 0 mm
18:48 -11.3 °C -16.6 °C 34533.8 hPa WSW 3.1 km/h 3.1 km/h 52 % 0 mm
18:53 -11.3 °C -16.6 °C 34533.8 hPa WSW 3.1 km/h 3.1 km/h 52 % 0 mm
19:03 -11.5 °C -16.8 °C 34567.7 hPa WSW 3.7 km/h 3.7 km/h 52 % 0 mm
19:08 -11.6 °C -16.8 °C 34567.7 hPa WSW 3.7 km/h 3.7 km/h 52 % 0 mm
19:13 -11.6 °C -16.9 °C 34567.7 hPa SW 6 km/h 6 km/h 52 % 0 mm
19:18 -11.6 °C -16.9 °C 34567.7 hPa SW 3.7 km/h 3.7 km/h 52 % 0 mm
19:23 -11.7 °C -16.9 °C 34567.7 hPa Calm     52 % 0 mm
19:28 -11.7 °C -17 °C 34567.7 hPa SW 3.1 km/h   52 % 0 mm
19:33 -11.8 °C -17.1 °C 34567.7 hPa Calm     52 % 0 mm
19:38 -11.8 °C -17.1 °C 34567.7 hPa WSW 6 km/h 6 km/h 52 % 0 mm
19:43 -11.8 °C -16.9 °C 34567.7 hPa WSW 3.7 km/h   53 % 0 mm
19:48 -11.8 °C -17.1 °C 34567.7 hPa WSW 6.8 km/h 6.8 km/h 52 % 0 mm
19:53 -11.8 °C -17.1 °C 34567.7 hPa West 6.8 km/h 6.8 km/h 52 % 0 mm
19:58 -11.9 °C -17.2 °C 34567.7 hPa SW 6.3 km/h 6.3 km/h 52 % 0 mm
20:03 -12 °C -17.3 °C 34567.7 hPa WSW 7.6 km/h 7.6 km/h 52 % 0 mm
20:08 -12 °C -17.3 °C 34567.7 hPa WSW 9 km/h 9 km/h 52 % 0 mm
20:13 -12.1 °C -17.3 °C 34567.7 hPa WSW 9 km/h 9 km/h 52 % 0 mm
20:18 -12.1 °C -17.5 °C 34601.5 hPa WSW 6.8 km/h 6.8 km/h 51 % 0 mm
20:23 -12.1 °C -17.5 °C 34601.5 hPa WSW 3.1 km/h 3.1 km/h 51 % 0 mm
20:28 -12.2 °C -17.6 °C 34601.5 hPa SW 3.1 km/h   51 % 0 mm
20:33 -12.3 °C -17.7 °C 34601.5 hPa WSW 3.1 km/h 3.1 km/h 51 % 0 mm
20:38 -12.3 °C -17.7 °C 34601.5 hPa WSW 3.1 km/h   51 % 0 mm
20:43 -12.4 °C -17.7 °C 34601.5 hPa Calm     51 % 0 mm
20:48 -12.4 °C -17.9 °C 34601.5 hPa Calm     50 % 0 mm
20:53 -12.4 °C -17.9 °C 34601.5 hPa Calm     50 % 0 mm
20:58 -12.5 °C -18 °C 34601.5 hPa Calm     50 % 0 mm
21:03 -12.6 °C -17.9 °C 34567.7 hPa Calm     51 % 0 mm
21:08 -12.6 °C -18.1 °C 34567.7 hPa West 6 km/h 6 km/h 50 % 0 mm
21:13 -12.6 °C -18.1 °C 34567.7 hPa WNW 3.1 km/h 3.1 km/h 50 % 0 mm
21:15 -15.1 °C -19.1 °C 34533.8 hPa NNW 2.6 km/h 5.1 km/h 59 % 0 mm
21:18 -12.6 °C -18.1 °C 34601.5 hPa WNW 3.1 km/h   50 % 0 mm
21:23 -12.5 °C -18 °C 34601.5 hPa WNW 3.1 km/h   50 % 0 mm
21:25 -15.1 °C -19.2 °C 34533.8 hPa Calm   5.1 km/h 59 % 0 mm
21:28 -12.6 °C -18.1 °C 34601.5 hPa Calm     50 % 0 mm
21:33 -12.7 °C -18.2 °C 34601.5 hPa SSE 6.8 km/h 6.8 km/h 50 % 0 mm
21:35 -15.1 °C -19.2 °C 34533.8 hPa North 2.6 km/h 5.1 km/h 59 % 0 mm
21:38 -12.9 °C -18.4 °C 34601.5 hPa SW 3.1 km/h   50 % 0 mm
21:43 -13 °C -18.5 °C 34601.5 hPa SW 3.1 km/h   50 % 0 mm
21:45 -15.2 °C -19.3 °C 34533.8 hPa Calm   2.6 km/h 59 % 0 mm
21:48 -13.1 °C -18.4 °C 34601.5 hPa Calm     51 % 0 mm
21:53 -13.2 °C -18.5 °C 34601.5 hPa Calm     51 % 0 mm
21:55 -15.3 °C -19.3 °C 34533.8 hPa WNW 2.6 km/h 2.6 km/h 59 % 0 mm
21:58 -13.3 °C -18.6 °C 34601.5 hPa SW 4.2 km/h 4.2 km/h 51 % 0 mm
22:03 -13.3 °C -18.7 °C 34601.5 hPa Calm     51 % 0 mm
22:05 -15.3 °C -19.3 °C 34533.8 hPa Calm     59 % 0 mm
22:08 -13.4 °C -18.7 °C 34601.5 hPa Calm     51 % 0 mm
22:13 -13.5 °C -18.8 °C 34601.5 hPa Calm     51 % 0 mm
22:15 -15.3 °C -19.3 °C 34533.8 hPa Calm   2.6 km/h 59 % 0 mm
22:18 -13.5 °C -18.8 °C 34601.5 hPa SW 3.1 km/h   51 % 0 mm
22:23 -13.6 °C -18.7 °C 34601.5 hPa Calm     52 % 0 mm
22:25 -15.3 °C -19.3 °C 34533.8 hPa Calm   2.6 km/h 59 % 0 mm
22:28 -13.7 °C -18.8 °C 34601.5 hPa Calm     52 % 0 mm
22:29 -13.7 °C -18.8 °C 34601.5 hPa Calm     52 % 0 mm
22:34 -13.7 °C -18.8 °C 34567.7 hPa Calm     52 % 0 mm
22:35 -15.4 °C -19.4 °C 34533.8 hPa Calm   2.6 km/h 59 % 0 mm
22:39 -13.7 °C -18.8 °C 34567.7 hPa NE 5.1 km/h   52 % 0 mm
22:44 -13.8 °C -18.9 °C 34567.7 hPa NE 6 km/h 6 km/h 52 % 0 mm
22:45 -15.4 °C -19.4 °C 34533.8 hPa Calm     59 % 0 mm
22:49 -13.9 °C -18.8 °C 34567.7 hPa ENE 3.1 km/h 3.1 km/h 53 % 0 mm
22:54 -13.9 °C -18.8 °C 34567.7 hPa Calm     53 % 0 mm
22:55 -15.4 °C -19.4 °C 34533.8 hPa WNW 2.6 km/h 2.6 km/h 59 % 0 mm
22:59 -13.9 °C -18.9 °C 34567.7 hPa Calm     53 % 0 mm
23:04 -13.9 °C -18.9 °C 34567.7 hPa WSW 4.2 km/h 4.2 km/h 53 % 0 mm
23:05 -15.3 °C -19.4 °C 34533.8 hPa Calm   2.6 km/h 59 % 0 mm
23:14 -14.1 °C -18.8 °C 34567.7 hPa WSW 3.1 km/h 3.1 km/h 54 % 0 mm
23:15 -15.4 °C -19.4 °C 34533.8 hPa North 2.6 km/h 5.1 km/h 59 % 0 mm
23:19 -14.1 °C -18.8 °C 34601.5 hPa WSW 3.1 km/h   54 % 0 mm
23:24 -14.1 °C -18.8 °C 34601.5 hPa WNW 3.1 km/h 3.1 km/h 54 % 0 mm
23:25 -15.4 °C -19.5 °C 34533.8 hPa Calm   2.6 km/h 59 % 0 mm
23:29 -14.1 °C -18.8 °C 34601.5 hPa ENE 4.2 km/h 4.2 km/h 54 % 0 mm
23:30 -14.1 °C -18.8 °C 34601.5 hPa ENE 4.2 km/h 4.2 km/h 54 % 0 mm
23:35 -14.1 °C -18.9 °C 34567.7 hPa NE 3.1 km/h 3.1 km/h 54 % 0 mm
23:40 -14.1 °C -18.8 °C 34567.7 hPa NE 3.7 km/h 3.7 km/h 54 % 0 mm
23:45 -13.9 °C -18.8 °C 34567.7 hPa NW 5.1 km/h 5.1 km/h 54 % 0 mm
23:50 -13.9 °C -18.7 °C 34567.7 hPa Calm     54 % 0 mm
23:55 -13.9 °C -18.6 °C 34567.7 hPa NE 6 km/h 6 km/h 55 % 0 mm
Meteo Sesrovires
Elogis d' Weather Underground - 1.5 mb

Guio original per  Jim McMurry - jmcmurry@mwt.net Adaptat per a la plantilla per  Wim van der Kuil - Leuven-Template.eu

Trobareu la nostra informacio del temps tambe a:

Weather Underground

AWEKAS